Time;durP1;ratioP1;P1;durP2;ratioP2;P2;SDS_P1;SDS_P2;PMS_P1;PMS_P2;Temp;Humidity;BMP_temperature;BMP_pressure;BME280_temperature;BME280_humidity;BME280_pressure;Samples;Min_cycle;Max_cycle;Signal;HPM_P1;HPM_P2
2023/02/05 00:00:46;;;;;;;;;;;;;;;3.28;nan;104018.06;6242032;23;19912;-86
2023/02/05 00:03:12;;;;;;;;;;;;;;;3.28;nan;104020.72;6241703;23;19961;-84
2023/02/05 00:05:37;;;;;;;;;;;;;;;3.28;nan;104019.88;6215018;23;19907;-85
2023/02/05 00:08:02;;;;;;;;;;;;;;;3.27;nan;104019.03;6240293;22;19907;-85
2023/02/05 00:10:28;;;;;;;;;;;;;;;3.28;nan;104019.88;6237470;23;19999;-85
2023/02/05 00:12:53;;;;;;;;;;;;;;;3.26;nan;104020.00;6240303;23;19967;-84
2023/02/05 00:15:18;;;;;;;;;;;;;;;3.24;nan;104021.94;6238270;23;19907;-84
2023/02/05 00:17:44;;;;;;;;;;;;;;;3.27;nan;104019.03;6241649;22;19919;-84
2023/02/05 00:20:10;;;;;;;;;;;;;;;3.31;nan;104024.94;6241191;23;20616;-85
2023/02/05 00:22:35;;;;;;;;;;;;;;;3.30;nan;104021.44;6241062;23;20038;-86
2023/02/05 00:25:00;;;;;;;;;;;;;;;3.31;nan;104025.78;6242200;23;20385;-84
2023/02/05 00:27:26;;;;;;;;;;;;;;;3.32;nan;104016.03;6241414;22;19923;-84
2023/02/05 00:29:51;;;;;;;;;;;;;;;3.33;nan;104015.06;6241555;23;19922;-84
2023/02/05 00:32:16;;;;;;;;;;;;;;;3.33;nan;104018.53;6239812;23;20106;-84
2023/02/05 00:34:42;;;;;;;;;;;;;;;3.33;nan;104015.06;6241516;23;20010;-84
2023/02/05 00:37:07;;;;;;;;;;;;;;;3.31;nan;104003.72;6239958;22;19923;-84
2023/02/05 00:39:32;;;;;;;;;;;;;;;3.31;nan;104012.53;6240760;23;19942;-85
2023/02/05 00:41:58;;;;;;;;;;;;;;;3.31;nan;104017.00;6240174;23;20339;-84
2023/02/05 00:44:23;;;;;;;;;;;;;;;3.31;nan;104012.53;6241980;23;20366;-84
2023/02/05 00:46:48;;;;;;;;;;;;;;;3.31;nan;104015.19;6240737;22;19978;-84
2023/02/05 00:49:14;;;;;;;;;;;;;;;3.34;nan;104017.59;6240929;23;19907;-85
2023/02/05 00:51:39;;;;;;;;;;;;;;;3.33;nan;104015.91;6240607;23;19923;-84
2023/02/05 00:54:05;;;;;;;;;;;;;;;3.31;nan;104009.88;6241179;23;20391;-84
2023/02/05 00:56:30;;;;;;;;;;;;;;;3.30;nan;103994.09;6241088;23;19922;-85
2023/02/05 00:58:56;;;;;;;;;;;;;;;3.29;nan;104001.22;6240937;22;19911;-84
2023/02/05 01:01:22;;;;;;;;;;;;;;;3.28;nan;103999.53;6240765;23;19986;-85
2023/02/05 01:03:47;;;;;;;;;;;;;;;3.28;nan;103998.69;6240007;23;20224;-85
2023/02/05 01:06:12;;;;;;;;;;;;;;;3.28;nan;104004.81;6239855;23;19915;-84
2023/02/05 01:08:38;;;;;;;;;;;;;;;3.28;nan;103993.38;6239516;22;20415;-84
2023/02/05 01:11:09;;;;;;;;;;;;;;;3.26;nan;103990.84;6213599;23;19908;-84
2023/02/05 01:13:34;;;;;;;;;;;;;;;3.24;nan;103990.13;6239993;23;19922;-85
2023/02/05 01:15:59;;;;;;;;;;;;;;;3.19;nan;103984.31;6210227;23;19915;-83
2023/02/05 01:18:25;;;;;;;;;;;;;;;3.16;nan;103973.13;6240172;22;20584;-84
2023/02/05 01:20:50;;;;;;;;;;;;;;;3.12;nan;103969.03;6240560;23;20648;-85
2023/02/05 01:23:16;;;;;;;;;;;;;;;3.10;nan;103963.03;6239844;23;19954;-83
2023/02/05 01:25:41;;;;;;;;;;;;;;;3.09;nan;103964.84;6214754;23;19908;-85
2023/02/05 01:28:06;;;;;;;;;;;;;;;3.08;nan;103960.50;6239880;22;19911;-85
2023/02/05 01:30:32;;;;;;;;;;;;;;;3.05;nan;103960.72;6238691;23;19946;-84
2023/02/05 01:32:58;;;;;;;;;;;;;;;3.03;nan;103954.69;6240709;23;20224;-84
2023/02/05 01:35:23;;;;;;;;;;;;;;;3.01;nan;103957.47;6241143;23;19911;-84
2023/02/05 01:37:48;;;;;;;;;;;;;;;3.01;nan;103948.69;6238500;22;20134;-85
2023/02/05 01:40:14;;;;;;;;;;;;;;;2.98;nan;103959.53;6241055;23;19907;-85
2023/02/05 01:42:40;;;;;;;;;;;;;;;2.95;nan;103957.97;6241920;23;19915;-85
2023/02/05 01:45:34;;;;;;;;;;;;;;;2.92;nan;103950.25;6243478;23;19908;-84
2023/02/05 01:48:01;;;;;;;;;;;;;;;2.89;nan;103944.34;6213147;22;19908;-85
2023/02/05 01:50:28;;;;;;;;;;;;;;;2.86;nan;103949.88;6243803;23;20328;-85
2023/02/05 01:52:56;;;;;;;;;;;;;;;2.83;nan;103952.75;6242937;23;19912;-85
2023/02/05 01:55:21;;;;;;;;;;;;;;;2.79;nan;103957.47;6243771;23;19907;-84
2023/02/05 01:57:48;;;;;;;;;;;;;;;2.73;nan;103950.84;6241935;22;19923;-84
2023/02/05 02:00:14;;;;;;;;;;;;;;;2.72;nan;103958.91;6243384;23;20171;-83
2023/02/05 02:02:39;;;;;;;;;;;;;;;2.68;nan;103958.25;6242856;23;19907;-84
2023/02/05 02:05:08;;;;;;;;;;;;;;;2.66;nan;103959.34;6243313;23;19918;-84
2023/02/05 02:07:34;;;;;;;;;;;;;;;2.63;nan;103963.06;6242654;22;19911;-85
2023/02/05 02:10:00;;;;;;;;;;;;;;;2.61;nan;103957.06;6242627;23;19908;-84
2023/02/05 02:12:27;;;;;;;;;;;;;;;2.59;nan;103952.84;6243749;23;20018;-84
2023/02/05 02:14:54;;;;;;;;;;;;;;;2.56;nan;103948.63;6243047;23;20458;-84
2023/02/05 02:17:20;;;;;;;;;;;;;;;2.51;nan;103944.63;6241879;22;20256;-85
2023/02/05 02:19:59;;;;;;;;;;;;;;;2.47;nan;103943.19;6243694;23;19981;-84
2023/02/05 02:22:24;;;;;;;;;;;;;;;2.41;nan;103940.06;6243359;23;19914;-84
2023/02/05 02:24:50;;;;;;;;;;;;;;;2.39;nan;103931.38;6242806;23;19912;-84
2023/02/05 02:27:21;;;;;;;;;;;;;;;2.35;nan;103935.22;6241763;22;19907;-83
2023/02/05 02:29:56;;;;;;;;;;;;;;;2.32;nan;103930.16;6242315;23;19957;-84
2023/02/05 02:32:51;;;;;;;;;;;;;;;2.28;nan;103930.50;6243074;23;19907;-84
2023/02/05 02:35:24;;;;;;;;;;;;;;;2.23;nan;103930.84;6217125;23;20282;-84
2023/02/05 02:37:57;;;;;;;;;;;;;;;2.19;nan;103925.91;6240838;22;19919;-84
2023/02/05 02:40:28;;;;;;;;;;;;;;;2.16;nan;103912.94;6243279;23;19911;-84
2023/02/05 02:43:00;;;;;;;;;;;;;;;2.15;nan;103908.56;6242854;23;19972;-83
2023/02/05 02:45:28;;;;;;;;;;;;;;;2.13;nan;103912.16;6244285;23;19907;-83
2023/02/05 02:47:56;;;;;;;;;;;;;;;2.09;nan;103913.38;6242074;22;19911;-83
2023/02/05 02:50:33;;;;;;;;;;;;;;;2.03;nan;103916.47;6243888;23;20463;-84
2023/02/05 02:53:08;;;;;;;;;;;;;;;2.00;nan;103905.28;6242732;23;19907;-83
2023/02/05 02:55:36;;;;;;;;;;;;;;;1.98;nan;103908.06;6242930;23;19908;-84
2023/02/05 02:58:04;;;;;;;;;;;;;;;1.97;nan;103903.69;6241984;22;19946;-85
2023/02/05 03:00:29;;;;;;;;;;;;;;;1.93;nan;103894.31;6242918;23;19907;-83
2023/02/05 03:02:59;;;;;;;;;;;;;;;1.92;nan;103899.72;6242783;23;19923;-84
2023/02/05 03:05:25;;;;;;;;;;;;;;;1.92;nan;103897.06;6243833;23;19908;-83
2023/02/05 03:08:01;;;;;;;;;;;;;;;1.89;nan;103900.78;6241547;22;19907;-84
2023/02/05 03:10:39;;;;;;;;;;;;;;;1.89;nan;103898.16;6242022;23;19912;-83
2023/02/05 03:13:05;;;;;;;;;;;;;;;1.87;nan;103901.88;6243973;23;19908;-83
2023/02/05 03:15:31;;;;;;;;;;;;;;;1.83;nan;103901.25;6242447;23;20235;-83
2023/02/05 03:17:56;;;;;;;;;;;;;;;1.79;nan;103899.78;6241261;22;19994;-83
2023/02/05 03:20:27;;;;;;;;;;;;;;;1.80;nan;103912.06;6241350;23;19912;-83
2023/02/05 03:22:53;;;;;;;;;;;;;;;1.79;nan;103911.19;6241824;23;19912;-83
2023/02/05 03:25:21;;;;;;;;;;;;;;;1.82;nan;103910.16;6242194;23;19915;-83
2023/02/05 03:27:47;;;;;;;;;;;;;;;1.80;nan;103904.97;6240923;22;20421;-83
2023/02/05 03:30:12;;;;;;;;;;;;;;;1.79;nan;103913.00;6241369;23;19942;-83
2023/02/05 03:32:56;;;;;;;;;;;;;;;1.74;nan;103918.63;6242193;23;19911;-82
2023/02/05 03:35:27;;;;;;;;;;;;;;;1.71;nan;103923.28;6242032;23;19914;-83
2023/02/05 03:38:11;;;;;;;;;;;;;;;1.67;nan;103919.19;6238601;22;20007;-83
2023/02/05 03:40:42;;;;;;;;;;;;;;;1.66;nan;103909.56;6241072;23;19907;-83
2023/02/05 03:43:07;;;;;;;;;;;;;;;1.65;nan;103919.31;6242236;23;19914;-82
2023/02/05 03:45:38;;;;;;;;;;;;;;;1.66;nan;103925.44;6241920;23;19986;-82
2023/02/05 03:48:19;;;;;;;;;;;;;;;1.65;nan;103910.53;6240516;22;19918;-83
2023/02/05 03:50:54;;;;;;;;;;;;;;;1.61;nan;103909.88;6241298;23;20331;-83
2023/02/05 03:53:26;;;;;;;;;;;;;;;1.61;nan;103901.13;6242756;23;19915;-83
2023/02/05 03:56:11;;;;;;;;;;;;;;;1.59;nan;103905.69;6240934;23;20441;-82
2023/02/05 03:58:41;;;;;;;;;;;;;;;1.57;nan;103910.22;6239746;22;19907;-82
2023/02/05 04:01:08;;;;;;;;;;;;;;;1.56;nan;103914.69;6240562;23;20476;-82
2023/02/05 04:03:34;;;;;;;;;;;;;;;1.53;nan;103920.19;6241075;23;20054;-83
2023/02/05 04:05:59;;;;;;;;;;;;;;;1.51;nan;103916.81;6242177;23;19907;-83
2023/02/05 04:08:25;;;;;;;;;;;;;;;1.46;nan;103917.16;6242849;22;19914;-83
2023/02/05 04:10:50;;;;;;;;;;;;;;;1.44;nan;103911.13;6243303;23;19908;-83
2023/02/05 04:13:15;;;;;;;;;;;;;;;1.42;nan;103910.38;6243811;23;19972;-82
2023/02/05 04:15:41;;;;;;;;;;;;;;;1.41;nan;103921.91;6240827;23;19914;-83
2023/02/05 04:18:07;;;;;;;;;;;;;;;1.36;nan;103934.59;6240122;22;19922;-82
2023/02/05 04:20:32;;;;;;;;;;;;;;;1.34;nan;103933.88;6241626;23;19918;-83
2023/02/05 04:22:58;;;;;;;;;;;;;;;1.33;nan;103937.47;6241908;23;19911;-83
2023/02/05 04:25:23;;;;;;;;;;;;;;;1.34;nan;103938.31;6242531;23;19977;-83
2023/02/05 04:27:48;;;;;;;;;;;;;;;1.33;nan;103937.47;6243453;22;19908;-82
2023/02/05 04:30:14;;;;;;;;;;;;;;;1.31;nan;103943.81;6245692;23;19918;-83
2023/02/05 04:32:39;;;;;;;;;;;;;;;1.28;nan;103942.25;6244056;23;20578;-83
2023/02/05 04:35:04;;;;;;;;;;;;;;;1.26;nan;103944.16;6217549;23;19911;-83
2023/02/05 04:37:30;;;;;;;;;;;;;;;1.25;nan;103941.59;6241953;22;20477;-83
2023/02/05 04:39:55;;;;;;;;;;;;;;;1.21;nan;103938.34;6245010;23;19912;-83
2023/02/05 04:42:20;;;;;;;;;;;;;;;1.20;nan;103934.00;6246350;23;20306;-83
2023/02/05 04:44:46;;;;;;;;;;;;;;;1.19;nan;103929.69;6244375;23;19908;-84
2023/02/05 04:47:12;;;;;;;;;;;;;;;1.20;nan;103934.00;6244933;22;20122;-82
2023/02/05 04:49:39;;;;;;;;;;;;;;;1.17;nan;103921.88;6245025;23;19907;-83
2023/02/05 04:52:05;;;;;;;;;;;;;;;1.17;nan;103928.94;6246298;23;19907;-82
2023/02/05 04:54:30;;;;;;;;;;;;;;;1.16;nan;103922.81;6245911;23;19915;-83
2023/02/05 04:56:55;;;;;;;;;;;;;;;1.13;nan;103927.47;6244326;22;19982;-82
2023/02/05 04:59:21;;;;;;;;;;;;;;;1.13;nan;103927.47;6244194;23;19907;-83
2023/02/05 05:01:46;;;;;;;;;;;;;;;1.12;nan;103931.06;6245316;23;19908;-83
2023/02/05 05:04:12;;;;;;;;;;;;;;;1.09;nan;103932.13;6245775;23;19919;-83
2023/02/05 05:06:37;;;;;;;;;;;;;;;1.09;nan;103933.94;6244258;22;20477;-83
2023/02/05 05:09:03;;;;;;;;;;;;;;;1.09;nan;103931.31;6244704;23;19908;-83
2023/02/05 05:11:28;;;;;;;;;;;;;;;1.10;nan;103930.34;6244886;23;19908;-83
2023/02/05 05:13:53;;;;;;;;;;;;;;;1.08;nan;103929.59;6245260;23;19937;-83
2023/02/05 05:16:19;;;;;;;;;;;;;;;1.07;nan;103927.91;6244530;23;19990;-82
2023/02/05 05:18:44;;;;;;;;;;;;;;;1.06;nan;103921.78;6244411;22;20331;-82
2023/02/05 05:21:10;;;;;;;;;;;;;;;1.06;nan;103913.00;6244717;23;20328;-82
2023/02/05 05:23:36;;;;;;;;;;;;;;;1.08;nan;103917.25;6245872;23;19911;-83
2023/02/05 05:26:05;;;;;;;;;;;;;;;1.10;nan;103911.84;6249564;23;20244;-82
2023/02/05 05:28:33;;;;;;;;;;;;;;;1.11;nan;103913.53;6247595;22;19908;-82
2023/02/05 05:30:59;;;;;;;;;;;;;;;1.13;nan;103914.28;6248937;23;19912;-83
2023/02/05 05:33:25;;;;;;;;;;;;;;;1.12;nan;103915.22;6248117;23;19915;-83
2023/02/05 05:35:50;;;;;;;;;;;;;;;1.11;nan;103916.19;6250161;23;19914;-84
2023/02/05 05:38:16;;;;;;;;;;;;;;;1.13;nan;103911.63;6252514;22;19907;-83
2023/02/05 05:46:09;;;;;;;;;;;;;;;1.18;nan;103920.91;6254404;23;19949;-82
2023/02/05 05:48:34;;;;;;;;;;;;;;;1.20;nan;103923.44;6252427;22;19994;-83
2023/02/05 05:51:00;;;;;;;;;;;;;;;1.21;nan;103922.50;6253116;23;20358;-83
2023/02/05 05:53:25;;;;;;;;;;;;;;;1.21;nan;103933.91;6253412;23;19908;-85
2023/02/05 05:55:50;;;;;;;;;;;;;;;1.21;nan;103938.34;6253374;23;19912;-83
2023/02/05 05:58:16;;;;;;;;;;;;;;;1.17;nan;103940.34;6251674;22;19918;-84
2023/02/05 06:00:41;;;;;;;;;;;;;;;1.16;nan;103937.81;6241434;23;19919;-83
2023/02/05 06:03:08;;;;;;;;;;;;;;;1.17;nan;103936.88;6244062;23;19908;-83
2023/02/05 06:05:34;;;;;;;;;;;;;;;1.20;nan;103952.50;6243153;23;19914;-84
2023/02/05 06:07:59;;;;;;;;;;;;;;;1.19;nan;103953.44;6244224;22;19909;-83
2023/02/05 06:10:25;;;;;;;;;;;;;;;1.20;nan;103952.50;6243815;23;20220;-83
2023/02/05 06:12:51;;;;;;;;;;;;;;;1.24;nan;103945.19;6244227;23;19908;-84
2023/02/05 06:15:17;;;;;;;;;;;;;;;1.24;nan;103942.56;6243801;23;19907;-83
2023/02/05 06:17:43;;;;;;;;;;;;;;;1.25;nan;103938.94;6243025;22;19926;-84
2023/02/05 06:20:08;;;;;;;;;;;;;;;1.25;nan;103934.50;6243987;23;19914;-83
2023/02/05 06:22:34;;;;;;;;;;;;;;;1.26;nan;103938.88;6243975;23;19918;-84
2023/02/05 06:25:01;;;;;;;;;;;;;;;1.28;nan;103938.75;6244842;23;19995;-82
2023/02/05 06:27:26;;;;;;;;;;;;;;;1.31;nan;103947.31;6243676;22;19914;-83
2023/02/05 06:29:51;;;;;;;;;;;;;;;1.34;nan;103959.44;6245060;23;19911;-83
2023/02/05 06:32:17;;;;;;;;;;;;;;;1.34;nan;103962.09;6244610;23;19907;-83
2023/02/05 06:34:42;;;;;;;;;;;;;;;1.35;nan;103959.34;6243693;23;19916;-83
2023/02/05 06:37:08;;;;;;;;;;;;;;;1.37;nan;103961.88;6242044;22;19943;-83
2023/02/05 06:39:34;;;;;;;;;;;;;;;1.39;nan;103960.81;6242394;23;19907;-84
2023/02/05 06:41:59;;;;;;;;;;;;;;;1.42;nan;103965.88;6243203;23;19935;-85
2023/02/05 06:44:24;;;;;;;;;;;;;;;1.44;nan;103955.22;6242347;23;19907;-83
2023/02/05 06:46:50;;;;;;;;;;;;;;;1.47;nan;103960.28;6242368;22;19907;-83
2023/02/05 06:49:15;;;;;;;;;;;;;;;1.51;nan;103962.59;6241965;23;19908;-84
2023/02/05 06:51:40;;;;;;;;;;;;;;;1.54;nan;103953.59;6242416;23;19907;-83
2023/02/05 06:54:06;;;;;;;;;;;;;;;1.57;nan;103955.16;6242308;23;19911;-84
2023/02/05 06:56:31;;;;;;;;;;;;;;;1.60;nan;103952.28;6242852;23;19939;-83
2023/02/05 06:58:57;;;;;;;;;;;;;;;1.66;nan;103957.16;6241251;22;20370;-83
2023/02/05 07:01:22;;;;;;;;;;;;;;;1.71;nan;103960.31;6242291;23;19961;-83
2023/02/05 07:03:48;;;;;;;;;;;;;;;1.75;nan;103967.03;6242231;23;19929;-84
2023/02/05 07:06:13;;;;;;;;;;;;;;;1.81;nan;103956.03;6242557;23;19954;-84
2023/02/05 07:08:38;;;;;;;;;;;;;;;1.88;nan;103959.91;6241712;22;20517;-83
2023/02/05 07:11:04;;;;;;;;;;;;;;;1.93;nan;103959.56;6242208;23;19914;-83
2023/02/05 07:13:29;;;;;;;;;;;;;;;1.98;nan;103958.31;6242705;23;19983;-83
2023/02/05 07:15:55;;;;;;;;;;;;;;;2.02;nan;103949.19;6241994;23;19911;-83
2023/02/05 07:18:20;;;;;;;;;;;;;;;2.07;nan;103943.53;6241940;22;19916;-84
2023/02/05 07:20:47;;;;;;;;;;;;;;;2.11;nan;103948.47;6241612;23;20328;-85
2023/02/05 07:23:12;;;;;;;;;;;;;;;2.18;nan;103959.47;6242593;23;19987;-85
2023/02/05 07:25:37;;;;;;;;;;;;;;;2.23;nan;103962.59;6242337;23;19981;-84
2023/02/05 07:28:03;;;;;;;;;;;;;;;2.27;nan;103957.91;6241210;22;19915;-84
2023/02/05 07:30:29;;;;;;;;;;;;;;;2.31;nan;103951.44;6242022;23;19908;-84
2023/02/05 07:32:54;;;;;;;;;;;;;;;2.33;nan;103945.06;6241748;23;19935;-84
2023/02/05 07:35:19;;;;;;;;;;;;;;;2.37;nan;103937.75;6241630;23;19915;-86
2023/02/05 07:37:45;;;;;;;;;;;;;;;2.43;nan;103935.47;6241767;22;19915;-84
2023/02/05 07:40:10;;;;;;;;;;;;;;;2.49;nan;103930.69;6242323;23;19907;-84
2023/02/05 07:42:36;;;;;;;;;;;;;;;2.57;nan;103933.59;6242080;23;19914;-85
2023/02/05 07:45:01;;;;;;;;;;;;;;;2.62;nan;103932.28;6241776;23;19911;-84
2023/02/05 07:47:27;;;;;;;;;;;;;;;2.67;nan;103924.81;6241842;22;19907;-85
2023/02/05 07:49:52;;;;;;;;;;;;;;;2.73;nan;103937.59;6242337;23;19986;-85
2023/02/05 07:52:18;;;;;;;;;;;;;;;2.81;nan;103941.44;6242360;23;20323;-85
2023/02/05 07:54:43;;;;;;;;;;;;;;;2.88;nan;103943.53;6241423;23;19911;-84
2023/02/05 07:57:09;;;;;;;;;;;;;;;2.95;nan;103944.72;6241816;22;19912;-84
2023/02/05 07:59:34;;;;;;;;;;;;;;;3.01;nan;103951.31;6242602;23;19907;-86
2023/02/05 08:01:59;;;;;;;;;;;;;;;3.04;nan;103957.22;6242109;23;19930;-86
2023/02/05 08:04:25;;;;;;;;;;;;;;;3.11;nan;103959.41;6241564;23;19907;-85
2023/02/05 08:06:50;;;;;;;;;;;;;;;3.15;nan;103952.91;6242020;22;19911;-85
2023/02/05 08:09:16;;;;;;;;;;;;;;;3.18;nan;103940.25;6242225;23;19907;-86
2023/02/05 08:11:41;;;;;;;;;;;;;;;3.23;nan;103943.41;6242565;23;19911;-84
2023/02/05 08:14:06;;;;;;;;;;;;;;;3.28;nan;103945.69;6244402;23;19938;-84
2023/02/05 08:16:32;;;;;;;;;;;;;;;3.30;nan;103949.88;6244467;23;19985;-85
2023/02/05 08:18:57;;;;;;;;;;;;;;;3.34;nan;103939.88;6242864;22;19915;-85
2023/02/05 08:21:23;;;;;;;;;;;;;;;3.38;nan;103937.81;6241961;23;19991;-86
2023/02/05 08:23:49;;;;;;;;;;;;;;;3.40;nan;103925.28;6238298;23;20220;-85
2023/02/05 08:26:14;;;;;;;;;;;;;;;3.39;nan;103926.25;6242570;23;19923;-84
2023/02/05 08:28:40;;;;;;;;;;;;;;;3.40;nan;103919.97;6242480;22;19961;-85
2023/02/05 08:31:13;;;;;;;;;;;;;;;3.44;nan;103932.06;6243303;23;20216;-85
2023/02/05 08:33:38;;;;;;;;;;;;;;;3.49;nan;103935.16;6240728;23;19931;-84
2023/02/05 08:36:04;;;;;;;;;;;;;;;3.52;nan;103932.25;6241433;23;19912;-85
2023/02/05 08:38:29;;;;;;;;;;;;;;;3.57;nan;103920.31;6241426;22;19908;-85
2023/02/05 08:40:54;;;;;;;;;;;;;;;3.61;nan;103920.94;6242342;23;19935;-85
2023/02/05 08:43:20;;;;;;;;;;;;;;;3.68;nan;103911.50;6214598;23;19911;-85
2023/02/05 08:45:46;;;;;;;;;;;;;;;3.71;nan;103911.25;6242383;23;19915;-86
2023/02/05 08:48:12;;;;;;;;;;;;;;;3.78;nan;103917.75;6241690;22;20348;-86
2023/02/05 08:50:37;;;;;;;;;;;;;;;3.88;nan;103918.66;6242098;23;19911;-86
2023/02/05 08:53:02;;;;;;;;;;;;;;;3.91;nan;103918.41;6241439;23;19982;-85
2023/02/05 08:55:28;;;;;;;;;;;;;;;3.98;nan;103925.88;6241196;23;19908;-85
2023/02/05 08:57:54;;;;;;;;;;;;;;;4.04;nan;103934.16;6241573;22;19978;-86
2023/02/05 09:00:20;;;;;;;;;;;;;;;4.12;nan;103936.16;6242575;23;20328;-85
2023/02/05 09:02:45;;;;;;;;;;;;;;;4.18;nan;103947.13;6242108;23;19915;-85
2023/02/05 09:05:11;;;;;;;;;;;;;;;4.27;nan;103952.63;6241024;23;19907;-85
2023/02/05 09:07:37;;;;;;;;;;;;;;;4.32;nan;103948.63;6241278;22;19983;-85
2023/02/05 09:10:02;;;;;;;;;;;;;;;4.37;nan;103941.13;6242324;23;19912;-85
2023/02/05 09:12:28;;;;;;;;;;;;;;;4.46;nan;103926.22;6241630;23;19919;-86
2023/02/05 09:14:53;;;;;;;;;;;;;;;4.52;nan;103933.66;6242525;23;19907;-85
2023/02/05 09:17:18;;;;;;;;;;;;;;;4.55;nan;103934.25;6238367;22;19936;-87
2023/02/05 09:19:44;;;;;;;;;;;;;;;4.62;nan;103933.72;6236332;23;20024;-86
2023/02/05 09:22:09;;;;;;;;;;;;;;;4.65;nan;103936.94;6235430;23;19939;-86
2023/02/05 09:24:35;;;;;;;;;;;;;;;4.68;nan;103938.53;6237911;22;20030;-86
2023/02/05 09:27:01;;;;;;;;;;;;;;;4.74;nan;103938.00;6234370;22;19908;-88
2023/02/05 09:29:28;;;;;;;;;;;;;;;4.78;nan;103940.25;6205987;23;19922;-87
2023/02/05 09:31:53;;;;;;;;;;;;;;;4.84;nan;103944.19;6207805;23;19907;-86
2023/02/05 09:34:18;;;;;;;;;;;;;;;4.91;nan;103944.50;6206386;23;20358;-86
2023/02/05 09:36:44;;;;;;;;;;;;;;;4.94;nan;103934.44;6203698;23;19970;-86
2023/02/05 09:39:16;;;;;;;;;;;;;;;4.97;nan;103934.19;6204754;23;19908;-88
2023/02/05 09:41:56;;;;;;;;;;;;;;;5.02;nan;103931.97;6206251;23;19931;-87
2023/02/05 09:44:30;;;;;;;;;;;;;;;5.08;nan;103925.28;6205425;23;20254;-86
2023/02/05 09:47:02;;;;;;;;;;;;;;;5.12;nan;103938.16;6205625;23;19958;-86
2023/02/05 09:49:37;;;;;;;;;;;;;;;5.15;nan;103929.06;6203493;23;19953;-88
2023/02/05 09:52:21;;;;;;;;;;;;;;;5.22;nan;103927.59;6205180;23;20130;-87
2023/02/05 09:54:53;;;;;;;;;;;;;;;5.25;nan;103934.44;6204205;23;19919;-86
2023/02/05 09:57:26;;;;;;;;;;;;;;;5.29;nan;103928.72;6204979;23;20340;-86
2023/02/05 09:59:51;;;;;;;;;;;;;;;5.36;nan;103921.88;6206081;23;19903;-87
2023/02/05 10:02:22;;;;;;;;;;;;;;;5.42;nan;103917.84;6205689;23;19919;-87
2023/02/05 10:04:49;;;;;;;;;;;;;;;5.48;nan;103927.91;6206151;23;19931;-86
2023/02/05 10:07:15;;;;;;;;;;;;;;;5.56;nan;103925.41;6204956;23;19915;-87
2023/02/05 10:09:59;;;;;;;;;;;;;;;5.60;nan;103921.50;6205594;23;19912;-87
2023/02/05 10:12:24;;;;;;;;;;;;;;;5.61;nan;103925.84;6207270;23;20252;-86
2023/02/05 10:15:28;;;;;;;;;;;;;;;5.64;nan;103914.94;6208065;23;19908;-87
2023/02/05 10:18:16;;;;;;;;;;;;;;;5.67;nan;103917.31;6085191;23;20453;-88
2023/02/05 10:20:51;;;;;;;;;;;;;;;5.76;nan;103919.16;6084144;23;20443;-87
2023/02/05 10:23:26;;;;;;;;;;;;;;;5.92;nan;103909.78;6165941;23;19934;-87
2023/02/05 10:26:24;;;;;;;;;;;;;;;6.08;nan;103894.09;6204257;23;19946;-86
2023/02/05 10:28:49;;;;;;;;;;;;;;;6.32;nan;103902.50;6136894;23;19919;-89
2023/02/05 10:31:17;;;;;;;;;;;;;;;6.54;nan;103895.16;6204933;23;19912;-85
2023/02/05 10:33:48;;;;;;;;;;;;;;;6.66;nan;103894.00;6207515;23;19938;-87
2023/02/05 10:36:15;;;;;;;;;;;;;;;6.83;nan;103898.56;6206218;23;19916;-86
2023/02/05 10:38:42;;;;;;;;;;;;;;;7.00;nan;103896.91;6206697;23;20308;-86
2023/02/05 10:41:17;;;;;;;;;;;;;;;7.15;nan;103895.44;6205730;23;20360;-86
2023/02/05 10:43:46;;;;;;;;;;;;;;;7.25;nan;103884.75;6205668;23;19912;-88
2023/02/05 10:46:12;;;;;;;;;;;;;;;7.27;nan;103882.75;6206745;23;19919;-85
2023/02/05 10:49:12;;;;;;;;;;;;;;;7.31;nan;103884.13;6206177;23;19908;-85
2023/02/05 10:51:46;;;;;;;;;;;;;;;7.41;nan;103874.25;6207577;23;19923;-85
2023/02/05 10:54:37;;;;;;;;;;;;;;;7.50;nan;103867.16;6204867;23;19911;-86
2023/02/05 10:57:02;;;;;;;;;;;;;;;7.62;nan;103865.94;6204900;23;20340;-88
2023/02/05 10:59:32;;;;;;;;;;;;;;;7.69;nan;103867.00;6207534;23;20220;-85
2023/02/05 11:02:03;;;;;;;;;;;;;;;7.76;nan;103864.59;6203995;23;19912;-87
2023/02/05 11:04:47;;;;;;;;;;;;;;;7.78;nan;103859.94;6203241;23;20661;-85
2023/02/05 11:07:25;;;;;;;;;;;;;;;7.92;nan;103867.41;6207441;23;20295;-87
2023/02/05 11:09:50;;;;;;;;;;;;;;;8.05;nan;103858.97;6207378;23;19912;-86
2023/02/05 11:12:42;;;;;;;;;;;;;;;8.07;nan;103860.47;6208878;23;19970;-85
2023/02/05 11:15:16;;;;;;;;;;;;;;;8.06;nan;103858.81;6208465;23;19908;-85
2023/02/05 11:17:42;;;;;;;;;;;;;;;8.09;nan;103861.19;6207445;23;20391;-85
2023/02/05 11:20:17;;;;;;;;;;;;;;;8.14;nan;103853.53;6209866;23;19912;-85
2023/02/05 11:22:44;;;;;;;;;;;;;;;8.24;nan;103855.25;6209007;23;19915;-85
2023/02/05 11:25:13;;;;;;;;;;;;;;;8.28;nan;103838.78;6208560;23;19912;-85
2023/02/05 11:28:21;;;;;;;;;;;;;;;8.34;nan;103840.00;6207344;23;20382;-84
2023/02/05 11:30:47;;;;;;;;;;;;;;;8.32;nan;103832.13;6081642;23;19937;-85
2023/02/05 11:33:21;;;;;;;;;;;;;;;8.37;nan;103834.34;6085433;23;19909;-85
2023/02/05 11:35:52;;;;;;;;;;;;;;;8.43;nan;103828.34;6152663;23;20290;-85
2023/02/05 11:38:21;;;;;;;;;;;;;;;8.50;nan;103829.41;6204364;23;19920;-85
2023/02/05 11:40:51;;;;;;;;;;;;;;;8.56;nan;103842.13;6207699;23;20003;-85
2023/02/05 11:43:20;;;;;;;;;;;;;;;8.60;nan;103846.16;6207566;23;19923;-85
2023/02/05 11:45:49;;;;;;;;;;;;;;;8.61;nan;103849.66;6210459;23;19912;-85
2023/02/05 11:48:21;;;;;;;;;;;;;;;8.67;nan;103847.22;6209181;23;20359;-84
2023/02/05 11:50:47;;;;;;;;;;;;;;;8.70;nan;103857.59;6209934;23;20344;-85
2023/02/05 11:53:15;;;;;;;;;;;;;;;8.64;nan;103841.34;6204492;23;19916;-85
2023/02/05 11:55:42;;;;;;;;;;;;;;;8.66;nan;103856.22;6207006;23;19912;-85
2023/02/05 11:58:18;;;;;;;;;;;;;;;8.60;nan;103848.84;6205624;23;19915;-85
2023/02/05 12:00:56;;;;;;;;;;;;;;;8.64;nan;103857.41;6206264;23;19918;-85
2023/02/05 12:03:25;;;;;;;;;;;;;;;8.72;nan;103847.56;6204997;23;20274;-85
2023/02/05 12:05:55;;;;;;;;;;;;;;;8.75;nan;103857.94;6207098;23;19912;-85
2023/02/05 12:08:21;;;;;;;;;;;;;;;8.76;nan;103851.59;6205937;23;19912;-86
2023/02/05 12:10:51;;;;;;;;;;;;;;;8.67;nan;103852.56;6206505;23;20034;-85
2023/02/05 12:13:23;;;;;;;;;;;;;;;8.63;nan;103850.38;6204806;23;19908;-85
2023/02/05 12:15:57;;;;;;;;;;;;;;;8.59;nan;103855.19;6205774;23;19987;-85
2023/02/05 12:18:36;;;;;;;;;;;;;;;8.63;nan;103847.69;6219272;23;20065;-85
2023/02/05 12:21:07;;;;;;;;;;;;;;;8.68;nan;103859.59;6237585;23;19918;-86
2023/02/05 12:23:35;;;;;;;;;;;;;;;8.68;nan;103864.09;6243137;23;20224;-85
2023/02/05 12:26:16;;;;;;;;;;;;;;;8.71;nan;103866.44;6244161;23;19923;-85
2023/02/05 12:29:19;;;;;;;;;;;;;;;8.67;nan;103851.72;6236933;22;19911;-86
2023/02/05 12:31:57;;;;;;;;;;;;;;;8.67;nan;103857.06;6112415;23;19955;-85
2023/02/05 12:34:34;;;;;;;;;;;;;;;8.66;nan;103860.75;6219755;23;19934;-85
2023/02/05 12:37:06;;;;;;;;;;;;;;;8.61;nan;103852.34;6235591;23;19915;-85
2023/02/05 12:39:35;;;;;;;;;;;;;;;8.56;nan;103852.81;6237237;23;19911;-86
2023/02/05 12:42:06;;;;;;;;;;;;;;;8.63;nan;103853.06;6235575;23;19911;-86
2023/02/05 12:44:43;;;;;;;;;;;;;;;8.59;nan;103844.50;6236818;23;19912;-85
2023/02/05 12:47:23;;;;;;;;;;;;;;;8.56;nan;103843.97;6235513;22;19911;-85
2023/02/05 12:50:02;;;;;;;;;;;;;;;8.56;nan;103843.97;6236767;23;19919;-84
2023/02/05 12:52:37;;;;;;;;;;;;;;;8.60;nan;103838.13;6237229;23;20228;-86
2023/02/05 12:55:11;;;;;;;;;;;;;;;8.70;nan;103830.03;6236679;23;19918;-86
2023/02/05 12:57:40;;;;;;;;;;;;;;;8.72;nan;103836.88;6235671;22;19938;-85
2023/02/05 13:00:11;;;;;;;;;;;;;;;8.69;nan;103844.38;6236416;23;20363;-85
2023/02/05 13:02:49;;;;;;;;;;;;;;;8.71;nan;103843.22;6237382;23;19907;-85
2023/02/05 13:05:29;;;;;;;;;;;;;;;8.70;nan;103838.88;6236963;23;19911;-85
2023/02/05 13:07:59;;;;;;;;;;;;;;;8.74;nan;103842.91;6236147;22;19935;-85
2023/02/05 13:10:28;;;;;;;;;;;;;;;8.76;nan;103840.06;6234417;23;19918;-85
2023/02/05 13:13:02;;;;;;;;;;;;;;;8.87;nan;103845.13;6236202;23;19922;-85
2023/02/05 13:15:30;;;;;;;;;;;;;;;8.96;nan;103848.66;6208985;23;19974;-85
2023/02/05 13:18:03;;;;;;;;;;;;;;;9.04;nan;103857.56;6235495;22;19935;-85
2023/02/05 13:28:41;;;;;;;;;;;;;;;9.24;nan;103876.00;6240401;22;19908;-85